• Join FlightAware (Why Join?)
  • Login
  • US Flag 
08:47PM EDT


 

Airport Tracker/Info


-or-


 

Live Flight TrackerFlight Track Log ✈ MTN7305 ✈ 12-Jun-2013 ✈ KBWI - KEWR

Flight Track Log - Related Links

Times and Time Zones

All times are in EDT time to prevent confusion due to time zone crossing. See the MTN7305 flight status page for this flight to view local times or setup timezone preferences in your user account.

Time Position Orientation Groundspeed Altitude Reporting Facility
EDT Latitude Longitude Course Direction KTS MPH feet Rate Location/Type
11:05PM 39.2000 -76.7000 303° West 107 123 1,000  Level Potomac TRACON
11:06PM 39.2167 -76.7333 303° West 127 146 1,500 540 Climbing Potomac TRACON
11:07PM 39.2500 -76.7333 360° North 138 159 2,100 600 Climbing Potomac TRACON
11:08PM 39.3000 -76.7333 360° North 142 163 2,700 660 Climbing Potomac TRACON
11:09PM 39.3333 -76.7333 360° North 134 154 3,500 660 Climbing Potomac TRACON
11:10PM 39.3500 -76.7000 57° Northeast 142 163 4,100 600 Climbing Potomac TRACON
11:11PM 39.3833 -76.6667 38° Northeast 145 167 4,700 420 Climbing Potomac TRACON
11:12PM 39.4000 -76.6167 67° East 155 178 5,000 120 Climbing Potomac TRACON
11:13PM 39.4333 -76.5667 49° Northeast 166 191 5,000  Level Potomac TRACON
11:14PM 39.4500 -76.5333 57° Northeast 163 188 5,000  Level Potomac TRACON
11:15PM 39.4833 -76.4833 49° Northeast 160 184 5,000  Level Potomac TRACON
11:16PM 39.5000 -76.4333 67° East 168 193 5,000  Level Potomac TRACON
11:17PM 39.5333 -76.3833 49° Northeast 178 205 5,000  Level Potomac TRACON
11:19PM 39.6000 -76.2833 49° Northeast 182 209 5,000  Level Philadelphia TRACON
11:20PM 39.6167 -76.2333 67° East 182 209 5,000  Level Philadelphia TRACON
11:21PM 39.6500 -76.1667 57° Northeast 185 213 5,000  Level Philadelphia TRACON
11:22PM 39.6833 -76.1167 49° Northeast 184 212 5,000  Level Philadelphia TRACON
11:23PM 39.7000 -76.0667 67° East 183 211 5,000  Level Philadelphia TRACON
11:24PM 39.7333 -76.0000 57° Northeast 183 211 5,000  Level Philadelphia TRACON
11:25PM 39.7667 -75.9500 49° Northeast 183 211 5,000  Level Philadelphia TRACON
11:26PM 39.7833 -75.9000 67° East 185 213 5,000  Level Philadelphia TRACON
11:27PM 39.8167 -75.8333 57° Northeast 185 213 5,000  Level Philadelphia TRACON
11:28PM 39.8333 -75.7833 67° East 185 213 5,000  Level Philadelphia TRACON
11:29PM 39.8667 -75.7333 49° Northeast 185 213 5,000  Level Philadelphia TRACON
11:30PM 39.9000 -75.6667 57° Northeast 183 211 5,000  Level Philadelphia TRACON
11:31PM 39.9167 -75.6167 66° East 179 206 5,000  Level Philadelphia TRACON
11:32PM 39.9500 -75.5667 49° Northeast 178 205 5,000  Level Philadelphia TRACON
11:33PM 39.9833 -75.5000 57° Northeast 181 208 5,000  Level Philadelphia TRACON
11:34PM 40.0000 -75.4500 66° East 177 204 5,000  Level Philadelphia TRACON
11:35PM 40.0333 -75.3833 57° Northeast 178 205 5,000  Level Philadelphia TRACON
11:36PM 40.0500 -75.3333 66° East 180 207 5,000  Level Philadelphia TRACON
11:37PM 40.0833 -75.2667 57° Northeast 180 207 5,000  Level Philadelphia TRACON
11:38PM 40.1167 -75.2167 49° Northeast 178 205 5,000  Level Philadelphia TRACON
11:39PM 40.1333 -75.1667 66° East 177 204 5,000  Level Philadelphia TRACON
11:40PM 40.1667 -75.1000 57° Northeast 177 204 5,000  Level Philadelphia TRACON
11:41PM 40.1833 -75.0500 66° East 177 204 5,000  Level Philadelphia TRACON
11:42PM 40.2167 -75.0000 49° Northeast 177 204 5,000  Level Philadelphia TRACON
11:43PM 40.2333 -74.9333 72° East 176 203 5,000  Level Philadelphia TRACON
11:43PM 40.2500 -74.9167 37° Northeast 176 203 5,000  Level New York TRACON
11:44PM 40.2833 -74.8667 49° Northeast 173 199 5,000  Level New York TRACON
11:46PM 40.3333 -74.7500 61° Northeast 178 205 5,000 -60 Level New York TRACON
11:47PM 40.3500 -74.7000 66° East 182 209 4,900 -360 Descending New York TRACON
11:48PM 40.3833 -74.6333 57° Northeast 189 217 4,300 -600 Descending New York TRACON
11:49PM 40.4000 -74.5833 66° East 189 217 3,800 -480 Descending New York TRACON
11:50PM 40.4167 -74.5167 72° East 190 219 3,400 -420 Descending New York TRACON
11:51PM 40.4500 -74.4500 57° Northeast 185 213 3,000 -240 Descending New York TRACON
11:52PM 40.4500 -74.4000 90° East 175 201 3,000  Level New York TRACON
11:53PM 40.4500 -74.3333 90° East 175 201 3,000  Level New York TRACON
11:54PM 40.4833 -74.3000 37° Northeast 173 199 3,000  Level New York TRACON
11:55PM 40.5167 -74.2667 37° Northeast 168 193 3,000 -300 Level New York TRACON
11:56PM 40.5667 -74.2500 14° North 170 196 2,500 -720 Descending New York TRACON
11:57PM 40.6000 -74.2167 37° Northeast 169 194 1,600 -900 Descending New York TRACON
11:58PM 40.6500 -74.2000 14° North 159 183 700 -900 Descending New York TRACON
12:00AM 40.6833 -74.1667 23° Northeast  Level FlightAware Approximate
12:07AM 40.6925 -74.1687 23° Northeast  Level Estimated
12:08AM 40.6925 -74.1687 23° Northeast  Level Estimated